KSWO/SWO METAR and TAF weather

Enter ICAO airport designator
Station Type Date Time Source
KSWO METAR 2019/10/15 18:35 UTC NOAA

KSWO 151835Z 36016G24KT 10SM FEW022 SCT027 OVC036 23/17 A2991 RMK AO2 T02330167


Station Type Date Time Source
KSWO Decoded METAR 2019/10/15 18:35 UTC NOAA

STILLWATER REGIONAL AIRPORT, OK, United States (KSWO) 36-10N 97-05W 290M
Oct 15, 2019 - 02:35 PM EDT / 2019.10.15 1835 UTC
Wind: from the N (360 degrees) at 18 MPH (16 KT) gusting to 28 MPH (24 KT):0
Visibility: 10 mile(s):0
Sky conditions: overcast
Temperature: 73.9 F (23.3 C)
Dew Point: 62.1 F (16.7 C)
Relative Humidity: 66%
Pressure (altimeter): 29.91 in. Hg (1012 hPa)
ob: KSWO 151835Z 36016G24KT 10SM FEW022 SCT027 OVC036 23/17 A2991 RMK AO2 T02330167
cycle: 18

Station Type Date Time Source
KSWO TAF UTC NOAA

Error!

Example: see airport list